sensor_id;sensor_type;location;lat;lon;timestamp;P1;durP1;ratioP1;P2;durP2;ratioP2
68866;SDS011;56451;44.804;20.476;2022-09-09T00:00:18;11.05;;;8.02;;
68866;SDS011;56451;44.804;20.476;2022-09-09T00:02:46;11.85;;;8.18;;
68866;SDS011;56451;44.804;20.476;2022-09-09T00:07:54;15.45;;;7.70;;
68866;SDS011;56451;44.804;20.476;2022-09-09T00:13:30;11.75;;;7.28;;
68866;SDS011;56451;44.804;20.476;2022-09-09T00:21:47;10.48;;;8.05;;
68866;SDS011;56451;44.804;20.476;2022-09-09T00:24:46;11.43;;;7.85;;
68866;SDS011;56451;44.804;20.476;2022-09-09T00:27:23;11.38;;;7.47;;
68866;SDS011;56451;44.804;20.476;2022-09-09T00:32:36;16.10;;;7.83;;
68866;SDS011;56451;44.804;20.476;2022-09-09T00:35:04;13.13;;;7.85;;
68866;SDS011;56451;44.804;20.476;2022-09-09T00:37:48;16.00;;;8.55;;
68866;SDS011;56451;44.804;20.476;2022-09-09T00:45:51;15.47;;;7.90;;
68866;SDS011;56451;44.804;20.476;2022-09-09T00:48:18;12.07;;;7.75;;
68866;SDS011;56451;44.804;20.476;2022-09-09T00:50:56;11.02;;;7.93;;
68866;SDS011;56451;44.804;20.476;2022-09-09T00:53:38;11.57;;;7.38;;
68866;SDS011;56451;44.804;20.476;2022-09-09T00:56:26;13.18;;;8.38;;
68866;SDS011;56451;44.804;20.476;2022-09-09T00:59:32;12.27;;;8.00;;
68866;SDS011;56451;44.804;20.476;2022-09-09T01:07:57;11.02;;;7.13;;
68866;SDS011;56451;44.804;20.476;2022-09-09T01:10:30;13.02;;;7.28;;
68866;SDS011;56451;44.804;20.476;2022-09-09T01:13:00;11.50;;;7.30;;
68866;SDS011;56451;44.804;20.476;2022-09-09T01:15:30;14.10;;;7.63;;
68866;SDS011;56451;44.804;20.476;2022-09-09T01:18:03;15.07;;;7.88;;
68866;SDS011;56451;44.804;20.476;2022-09-09T01:26:27;14.07;;;7.63;;
68866;SDS011;56451;44.804;20.476;2022-09-09T01:29:12;13.98;;;7.65;;
68866;SDS011;56451;44.804;20.476;2022-09-09T01:31:42;11.68;;;6.72;;
68866;SDS011;56451;44.804;20.476;2022-09-09T01:34:17;11.63;;;7.45;;
68866;SDS011;56451;44.804;20.476;2022-09-09T01:36:46;14.13;;;7.82;;
68866;SDS011;56451;44.804;20.476;2022-09-09T01:39:25;11.13;;;7.80;;
68866;SDS011;56451;44.804;20.476;2022-09-09T01:41:59;13.65;;;7.00;;
68866;SDS011;56451;44.804;20.476;2022-09-09T01:44:24;15.07;;;7.80;;
68866;SDS011;56451;44.804;20.476;2022-09-09T01:46:51;13.45;;;8.00;;
68866;SDS011;56451;44.804;20.476;2022-09-09T01:49:19;12.80;;;7.87;;
68866;SDS011;56451;44.804;20.476;2022-09-09T01:51:46;14.50;;;8.00;;
68866;SDS011;56451;44.804;20.476;2022-09-09T01:54:17;13.02;;;7.45;;
68866;SDS011;56451;44.804;20.476;2022-09-09T02:02:13;12.77;;;8.20;;
68866;SDS011;56451;44.804;20.476;2022-09-09T02:13:06;22.45;;;7.50;;
68866;SDS011;56451;44.804;20.476;2022-09-09T02:18:54;14.55;;;7.50;;
68866;SDS011;56451;44.804;20.476;2022-09-09T02:21:35;13.88;;;7.53;;
68866;SDS011;56451;44.804;20.476;2022-09-09T02:24:02;12.95;;;7.90;;
68866;SDS011;56451;44.804;20.476;2022-09-09T02:26:38;12.15;;;7.78;;
68866;SDS011;56451;44.804;20.476;2022-09-09T02:29:10;13.67;;;6.80;;
68866;SDS011;56451;44.804;20.476;2022-09-09T02:31:41;14.15;;;7.82;;
68866;SDS011;56451;44.804;20.476;2022-09-09T02:34:14;10.40;;;6.85;;
68866;SDS011;56451;44.804;20.476;2022-09-09T02:36:44;12.50;;;7.45;;
68866;SDS011;56451;44.804;20.476;2022-09-09T02:39:11;14.63;;;8.15;;
68866;SDS011;56451;44.804;20.476;2022-09-09T02:41:39;11.37;;;6.97;;
68866;SDS011;56451;44.804;20.476;2022-09-09T02:44:12;9.60;;;6.50;;
68866;SDS011;56451;44.804;20.476;2022-09-09T02:52:07;11.18;;;7.20;;
68866;SDS011;56451;44.804;20.476;2022-09-09T02:54:37;11.10;;;7.23;;
68866;SDS011;56451;44.804;20.476;2022-09-09T02:57:09;10.90;;;6.97;;
68866;SDS011;56451;44.804;20.476;2022-09-09T02:59:38;13.68;;;7.60;;
68866;SDS011;56451;44.804;20.476;2022-09-09T03:02:05;16.98;;;7.03;;
68866;SDS011;56451;44.804;20.476;2022-09-09T03:04:32;10.68;;;7.20;;
68866;SDS011;56451;44.804;20.476;2022-09-09T03:06:58;14.03;;;6.77;;
68866;SDS011;56451;44.804;20.476;2022-09-09T03:09:25;10.07;;;7.07;;
68866;SDS011;56451;44.804;20.476;2022-09-09T03:11:55;14.80;;;7.50;;
68866;SDS011;56451;44.804;20.476;2022-09-09T03:14:21;11.15;;;7.07;;
68866;SDS011;56451;44.804;20.476;2022-09-09T03:16:50;12.30;;;7.20;;
68866;SDS011;56451;44.804;20.476;2022-09-09T03:19:17;14.88;;;7.47;;
68866;SDS011;56451;44.804;20.476;2022-09-09T03:21:44;12.90;;;6.97;;
68866;SDS011;56451;44.804;20.476;2022-09-09T03:24:13;8.90;;;6.70;;
68866;SDS011;56451;44.804;20.476;2022-09-09T03:26:39;11.85;;;6.70;;
68866;SDS011;56451;44.804;20.476;2022-09-09T03:29:09;14.63;;;7.00;;
68866;SDS011;56451;44.804;20.476;2022-09-09T03:31:36;11.93;;;7.05;;
68866;SDS011;56451;44.804;20.476;2022-09-09T03:34:02;10.20;;;6.80;;
68866;SDS011;56451;44.804;20.476;2022-09-09T03:36:31;13.10;;;6.88;;
68866;SDS011;56451;44.804;20.476;2022-09-09T03:38:58;15.32;;;7.30;;
68866;SDS011;56451;44.804;20.476;2022-09-09T03:41:26;14.27;;;7.77;;
68866;SDS011;56451;44.804;20.476;2022-09-09T03:43:53;16.48;;;7.25;;
68866;SDS011;56451;44.804;20.476;2022-09-09T03:46:20;10.85;;;6.90;;
68866;SDS011;56451;44.804;20.476;2022-09-09T03:48:47;14.88;;;7.30;;
68866;SDS011;56451;44.804;20.476;2022-09-09T03:51:13;10.53;;;6.73;;
68866;SDS011;56451;44.804;20.476;2022-09-09T03:53:40;12.80;;;7.53;;
68866;SDS011;56451;44.804;20.476;2022-09-09T03:56:06;18.05;;;7.90;;
68866;SDS011;56451;44.804;20.476;2022-09-09T03:58:32;14.57;;;7.75;;
68866;SDS011;56451;44.804;20.476;2022-09-09T04:01:11;14.75;;;7.72;;
68866;SDS011;56451;44.804;20.476;2022-09-09T04:03:39;13.07;;;7.50;;
68866;SDS011;56451;44.804;20.476;2022-09-09T04:06:07;14.45;;;7.50;;
68866;SDS011;56451;44.804;20.476;2022-09-09T04:08:35;12.27;;;7.80;;
68866;SDS011;56451;44.804;20.476;2022-09-09T04:11:02;17.02;;;8.70;;
68866;SDS011;56451;44.804;20.476;2022-09-09T04:13:30;14.07;;;9.15;;
68866;SDS011;56451;44.804;20.476;2022-09-09T04:15:57;14.27;;;8.30;;
68866;SDS011;56451;44.804;20.476;2022-09-09T04:18:24;15.02;;;8.55;;
68866;SDS011;56451;44.804;20.476;2022-09-09T04:20:51;18.40;;;8.45;;
68866;SDS011;56451;44.804;20.476;2022-09-09T04:23:20;17.20;;;8.20;;
68866;SDS011;56451;44.804;20.476;2022-09-09T04:25:47;16.80;;;8.27;;
68866;SDS011;56451;44.804;20.476;2022-09-09T04:28:18;12.73;;;7.78;;
68866;SDS011;56451;44.804;20.476;2022-09-09T04:30:45;12.82;;;7.90;;
68866;SDS011;56451;44.804;20.476;2022-09-09T04:33:11;15.63;;;7.55;;
68866;SDS011;56451;44.804;20.476;2022-09-09T04:35:38;10.82;;;7.20;;
68866;SDS011;56451;44.804;20.476;2022-09-09T04:38:05;13.93;;;7.63;;
68866;SDS011;56451;44.804;20.476;2022-09-09T04:40:35;12.68;;;6.85;;
68866;SDS011;56451;44.804;20.476;2022-09-09T04:43:01;13.60;;;7.90;;
68866;SDS011;56451;44.804;20.476;2022-09-09T04:45:31;15.77;;;8.27;;
68866;SDS011;56451;44.804;20.476;2022-09-09T04:47:57;14.80;;;7.73;;
68866;SDS011;56451;44.804;20.476;2022-09-09T04:50:23;15.35;;;8.35;;
68866;SDS011;56451;44.804;20.476;2022-09-09T04:52:59;16.20;;;8.15;;
68866;SDS011;56451;44.804;20.476;2022-09-09T04:55:27;14.73;;;7.82;;
68866;SDS011;56451;44.804;20.476;2022-09-09T04:57:53;14.43;;;8.17;;
68866;SDS011;56451;44.804;20.476;2022-09-09T05:00:19;14.93;;;8.80;;
68866;SDS011;56451;44.804;20.476;2022-09-09T05:02:45;12.80;;;8.20;;
68866;SDS011;56451;44.804;20.476;2022-09-09T05:05:11;16.15;;;8.25;;
68866;SDS011;56451;44.804;20.476;2022-09-09T05:07:38;12.13;;;7.38;;
68866;SDS011;56451;44.804;20.476;2022-09-09T05:10:03;16.57;;;8.30;;
68866;SDS011;56451;44.804;20.476;2022-09-09T05:12:30;14.50;;;7.78;;
68866;SDS011;56451;44.804;20.476;2022-09-09T05:14:57;19.17;;;8.38;;
68866;SDS011;56451;44.804;20.476;2022-09-09T05:17:23;13.47;;;7.73;;
68866;SDS011;56451;44.804;20.476;2022-09-09T05:19:49;13.27;;;8.68;;
68866;SDS011;56451;44.804;20.476;2022-09-09T05:22:21;13.85;;;8.52;;
68866;SDS011;56451;44.804;20.476;2022-09-09T05:24:52;16.37;;;8.17;;
68866;SDS011;56451;44.804;20.476;2022-09-09T05:27:18;14.40;;;8.55;;
68866;SDS011;56451;44.804;20.476;2022-09-09T05:29:46;14.23;;;8.48;;
68866;SDS011;56451;44.804;20.476;2022-09-09T05:32:13;14.38;;;8.35;;
68866;SDS011;56451;44.804;20.476;2022-09-09T05:34:42;14.07;;;8.20;;
68866;SDS011;56451;44.804;20.476;2022-09-09T05:37:07;15.93;;;8.00;;
68866;SDS011;56451;44.804;20.476;2022-09-09T05:39:34;16.90;;;8.35;;
68866;SDS011;56451;44.804;20.476;2022-09-09T05:42:02;14.32;;;8.07;;
68866;SDS011;56451;44.804;20.476;2022-09-09T05:44:31;16.60;;;8.30;;
68866;SDS011;56451;44.804;20.476;2022-09-09T05:46:57;16.73;;;8.52;;
68866;SDS011;56451;44.804;20.476;2022-09-09T05:49:23;12.07;;;7.77;;
68866;SDS011;56451;44.804;20.476;2022-09-09T05:51:49;18.02;;;8.70;;
68866;SDS011;56451;44.804;20.476;2022-09-09T05:54:17;13.40;;;8.13;;
68866;SDS011;56451;44.804;20.476;2022-09-09T05:56:50;12.40;;;7.97;;
68866;SDS011;56451;44.804;20.476;2022-09-09T05:59:18;14.90;;;7.93;;
68866;SDS011;56451;44.804;20.476;2022-09-09T06:01:44;14.52;;;7.82;;
68866;SDS011;56451;44.804;20.476;2022-09-09T06:04:19;15.77;;;8.05;;
68866;SDS011;56451;44.804;20.476;2022-09-09T06:06:48;23.97;;;8.23;;
68866;SDS011;56451;44.804;20.476;2022-09-09T06:09:16;18.70;;;7.82;;
68866;SDS011;56451;44.804;20.476;2022-09-09T06:11:43;14.98;;;7.70;;
68866;SDS011;56451;44.804;20.476;2022-09-09T06:14:10;25.02;;;9.23;;
68866;SDS011;56451;44.804;20.476;2022-09-09T06:16:36;21.70;;;8.73;;
68866;SDS011;56451;44.804;20.476;2022-09-09T06:19:13;12.90;;;7.83;;
68866;SDS011;56451;44.804;20.476;2022-09-09T06:21:40;20.38;;;7.57;;
68866;SDS011;56451;44.804;20.476;2022-09-09T06:24:07;16.73;;;8.27;;
68866;SDS011;56451;44.804;20.476;2022-09-09T06:26:35;13.25;;;7.90;;
68866;SDS011;56451;44.804;20.476;2022-09-09T06:29:03;14.50;;;8.45;;
68866;SDS011;56451;44.804;20.476;2022-09-09T06:31:30;14.30;;;8.30;;
68866;SDS011;56451;44.804;20.476;2022-09-09T06:34:07;15.35;;;7.82;;
68866;SDS011;56451;44.804;20.476;2022-09-09T06:36:35;16.20;;;8.35;;
68866;SDS011;56451;44.804;20.476;2022-09-09T06:39:03;13.73;;;7.55;;
68866;SDS011;56451;44.804;20.476;2022-09-09T06:41:32;15.02;;;7.97;;
68866;SDS011;56451;44.804;20.476;2022-09-09T06:43:59;13.47;;;8.23;;
68866;SDS011;56451;44.804;20.476;2022-09-09T06:46:38;16.50;;;8.48;;
68866;SDS011;56451;44.804;20.476;2022-09-09T06:49:05;13.77;;;8.02;;
68866;SDS011;56451;44.804;20.476;2022-09-09T06:51:36;15.20;;;8.60;;
68866;SDS011;56451;44.804;20.476;2022-09-09T06:54:08;15.30;;;8.35;;
68866;SDS011;56451;44.804;20.476;2022-09-09T06:56:38;13.23;;;8.47;;
68866;SDS011;56451;44.804;20.476;2022-09-09T06:59:19;15.57;;;9.18;;
68866;SDS011;56451;44.804;20.476;2022-09-09T07:01:46;19.40;;;9.48;;
68866;SDS011;56451;44.804;20.476;2022-09-09T07:04:17;14.07;;;8.57;;
68866;SDS011;56451;44.804;20.476;2022-09-09T07:06:44;14.32;;;8.88;;
68866;SDS011;56451;44.804;20.476;2022-09-09T07:09:15;16.73;;;8.97;;
68866;SDS011;56451;44.804;20.476;2022-09-09T07:11:45;16.77;;;9.70;;
68866;SDS011;56451;44.804;20.476;2022-09-09T07:14:13;17.73;;;9.35;;
68866;SDS011;56451;44.804;20.476;2022-09-09T07:16:41;14.68;;;9.32;;
68866;SDS011;56451;44.804;20.476;2022-09-09T07:19:08;15.32;;;8.63;;
68866;SDS011;56451;44.804;20.476;2022-09-09T07:21:35;17.20;;;9.33;;
68866;SDS011;56451;44.804;20.476;2022-09-09T07:24:01;18.75;;;9.55;;
68866;SDS011;56451;44.804;20.476;2022-09-09T07:26:28;15.38;;;9.20;;
68866;SDS011;56451;44.804;20.476;2022-09-09T07:28:57;15.13;;;9.80;;
68866;SDS011;56451;44.804;20.476;2022-09-09T07:31:26;14.93;;;9.23;;
68866;SDS011;56451;44.804;20.476;2022-09-09T07:33:57;14.67;;;9.20;;
68866;SDS011;56451;44.804;20.476;2022-09-09T07:36:34;16.27;;;9.75;;
68866;SDS011;56451;44.804;20.476;2022-09-09T07:39:05;14.65;;;9.45;;
68866;SDS011;56451;44.804;20.476;2022-09-09T07:41:37;13.80;;;8.82;;
68866;SDS011;56451;44.804;20.476;2022-09-09T07:44:09;17.63;;;8.57;;
68866;SDS011;56451;44.804;20.476;2022-09-09T07:46:38;14.23;;;9.33;;
68866;SDS011;56451;44.804;20.476;2022-09-09T07:49:07;15.82;;;9.43;;
68866;SDS011;56451;44.804;20.476;2022-09-09T07:51:34;14.07;;;8.77;;
68866;SDS011;56451;44.804;20.476;2022-09-09T07:54:05;17.50;;;9.05;;
68866;SDS011;56451;44.804;20.476;2022-09-09T07:56:35;18.85;;;8.80;;
68866;SDS011;56451;44.804;20.476;2022-09-09T07:59:03;13.53;;;8.60;;
68866;SDS011;56451;44.804;20.476;2022-09-09T08:01:33;16.83;;;7.88;;
68866;SDS011;56451;44.804;20.476;2022-09-09T08:04:03;13.63;;;8.43;;
68866;SDS011;56451;44.804;20.476;2022-09-09T08:06:39;15.20;;;8.65;;
68866;SDS011;56451;44.804;20.476;2022-09-09T08:09:08;14.60;;;8.88;;
68866;SDS011;56451;44.804;20.476;2022-09-09T08:11:35;19.23;;;9.60;;
68866;SDS011;56451;44.804;20.476;2022-09-09T08:14:03;17.63;;;9.43;;
68866;SDS011;56451;44.804;20.476;2022-09-09T08:16:31;17.13;;;9.73;;
68866;SDS011;56451;44.804;20.476;2022-09-09T08:18:59;17.15;;;10.02;;
68866;SDS011;56451;44.804;20.476;2022-09-09T08:21:29;15.00;;;10.43;;
68866;SDS011;56451;44.804;20.476;2022-09-09T08:23:58;17.17;;;10.53;;
68866;SDS011;56451;44.804;20.476;2022-09-09T08:26:26;21.83;;;11.40;;
68866;SDS011;56451;44.804;20.476;2022-09-09T08:28:54;16.13;;;10.15;;
68866;SDS011;56451;44.804;20.476;2022-09-09T08:31:24;16.95;;;10.00;;
68866;SDS011;56451;44.804;20.476;2022-09-09T08:33:55;19.38;;;10.35;;
68866;SDS011;56451;44.804;20.476;2022-09-09T08:36:23;12.50;;;9.50;;
68866;SDS011;56451;44.804;20.476;2022-09-09T08:38:55;14.30;;;9.95;;
68866;SDS011;56451;44.804;20.476;2022-09-09T08:52:35;13.73;;;8.52;;
68866;SDS011;56451;44.804;20.476;2022-09-09T08:58:11;17.23;;;9.00;;
68866;SDS011;56451;44.804;20.476;2022-09-09T09:00:43;13.60;;;8.82;;
68866;SDS011;56451;44.804;20.476;2022-09-09T09:11:16;15.02;;;9.10;;
68866;SDS011;56451;44.804;20.476;2022-09-09T09:13:45;16.70;;;8.60;;
68866;SDS011;56451;44.804;20.476;2022-09-09T09:16:29;22.63;;;9.60;;
68866;SDS011;56451;44.804;20.476;2022-09-09T09:18:59;13.93;;;9.55;;
68866;SDS011;56451;44.804;20.476;2022-09-09T09:21:39;13.00;;;8.55;;
68866;SDS011;56451;44.804;20.476;2022-09-09T09:24:23;19.27;;;9.90;;
68866;SDS011;56451;44.804;20.476;2022-09-09T09:27:12;13.95;;;8.10;;
68866;SDS011;56451;44.804;20.476;2022-09-09T09:29:44;16.07;;;9.40;;
68866;SDS011;56451;44.804;20.476;2022-09-09T09:32:16;15.63;;;10.73;;
68866;SDS011;56451;44.804;20.476;2022-09-09T09:34:50;14.35;;;10.05;;
68866;SDS011;56451;44.804;20.476;2022-09-09T09:37:24;18.63;;;10.52;;
68866;SDS011;56451;44.804;20.476;2022-09-09T09:40:07;13.98;;;10.13;;
68866;SDS011;56451;44.804;20.476;2022-09-09T09:42:48;17.13;;;9.33;;
68866;SDS011;56451;44.804;20.476;2022-09-09T09:47:59;22.45;;;10.85;;
68866;SDS011;56451;44.804;20.476;2022-09-09T09:50:39;13.93;;;9.15;;
68866;SDS011;56451;44.804;20.476;2022-09-09T09:53:22;17.35;;;10.60;;
68866;SDS011;56451;44.804;20.476;2022-09-09T09:58:22;17.23;;;11.07;;
68866;SDS011;56451;44.804;20.476;2022-09-09T10:00:51;19.17;;;11.30;;
68866;SDS011;56451;44.804;20.476;2022-09-09T10:05:57;18.83;;;11.50;;
68866;SDS011;56451;44.804;20.476;2022-09-09T10:08:26;17.60;;;10.83;;
68866;SDS011;56451;44.804;20.476;2022-09-09T10:13:39;19.13;;;10.63;;
68866;SDS011;56451;44.804;20.476;2022-09-09T10:18:58;16.13;;;10.70;;
68866;SDS011;56451;44.804;20.476;2022-09-09T10:41:11;17.77;;;10.70;;
68866;SDS011;56451;44.804;20.476;2022-09-09T10:43:51;17.10;;;10.57;;
68866;SDS011;56451;44.804;20.476;2022-09-09T10:55:08;14.20;;;8.55;;
68866;SDS011;56451;44.804;20.476;2022-09-09T10:57:54;14.07;;;9.13;;
68866;SDS011;56451;44.804;20.476;2022-09-09T11:00:24;16.65;;;10.07;;
68866;SDS011;56451;44.804;20.476;2022-09-09T11:02:57;11.73;;;9.03;;
68866;SDS011;56451;44.804;20.476;2022-09-09T11:05:29;12.20;;;8.82;;
68866;SDS011;56451;44.804;20.476;2022-09-09T11:13:37;18.02;;;10.15;;
68866;SDS011;56451;44.804;20.476;2022-09-09T11:16:19;14.30;;;10.97;;
68866;SDS011;56451;44.804;20.476;2022-09-09T11:21:51;17.33;;;11.30;;
68866;SDS011;56451;44.804;20.476;2022-09-09T11:24:23;14.15;;;10.73;;
68866;SDS011;56451;44.804;20.476;2022-09-09T11:27:01;18.58;;;11.02;;
68866;SDS011;56451;44.804;20.476;2022-09-09T11:32:48;16.65;;;10.25;;
68866;SDS011;56451;44.804;20.476;2022-09-09T11:36:34;12.38;;;8.60;;
68866;SDS011;56451;44.804;20.476;2022-09-09T11:38:44;10.20;;;7.82;;
68866;SDS011;56451;44.804;20.476;2022-09-09T11:41:16;13.77;;;7.75;;
68866;SDS011;56451;44.804;20.476;2022-09-09T11:43:50;14.17;;;8.97;;
68866;SDS011;56451;44.804;20.476;2022-09-09T11:46:20;13.27;;;8.02;;
68866;SDS011;56451;44.804;20.476;2022-09-09T11:48:59;13.98;;;8.30;;
68866;SDS011;56451;44.804;20.476;2022-09-09T11:51:28;13.32;;;8.85;;
68866;SDS011;56451;44.804;20.476;2022-09-09T11:53:56;13.25;;;8.55;;
68866;SDS011;56451;44.804;20.476;2022-09-09T11:56:28;14.17;;;8.07;;
68866;SDS011;56451;44.804;20.476;2022-09-09T11:59:06;10.95;;;6.85;;
68866;SDS011;56451;44.804;20.476;2022-09-09T12:01:45;12.20;;;7.45;;
68866;SDS011;56451;44.804;20.476;2022-09-09T12:04:16;12.57;;;7.97;;
68866;SDS011;56451;44.804;20.476;2022-09-09T12:09:22;12.43;;;8.23;;
68866;SDS011;56451;44.804;20.476;2022-09-09T12:11:50;12.43;;;8.20;;
68866;SDS011;56451;44.804;20.476;2022-09-09T12:14:34;10.57;;;7.10;;
68866;SDS011;56451;44.804;20.476;2022-09-09T12:19:41;11.13;;;6.90;;
68866;SDS011;56451;44.804;20.476;2022-09-09T12:22:09;11.67;;;7.00;;
68866;SDS011;56451;44.804;20.476;2022-09-09T12:24:46;12.00;;;6.78;;
68866;SDS011;56451;44.804;20.476;2022-09-09T12:30:15;9.57;;;6.10;;
68866;SDS011;56451;44.804;20.476;2022-09-09T12:32:42;11.50;;;6.93;;
68866;SDS011;56451;44.804;20.476;2022-09-09T12:35:23;10.43;;;6.20;;
68866;SDS011;56451;44.804;20.476;2022-09-09T12:37:57;11.30;;;5.40;;
68866;SDS011;56451;44.804;20.476;2022-09-09T12:40:26;7.78;;;5.20;;
68866;SDS011;56451;44.804;20.476;2022-09-09T12:42:53;16.48;;;5.97;;
68866;SDS011;56451;44.804;20.476;2022-09-09T12:45:21;8.40;;;4.95;;
68866;SDS011;56451;44.804;20.476;2022-09-09T12:48:10;8.40;;;5.17;;
68866;SDS011;56451;44.804;20.476;2022-09-09T12:50:38;8.77;;;5.80;;
68866;SDS011;56451;44.804;20.476;2022-09-09T12:53:27;10.13;;;6.15;;
68866;SDS011;56451;44.804;20.476;2022-09-09T12:55:58;10.25;;;6.00;;
68866;SDS011;56451;44.804;20.476;2022-09-09T12:58:27;9.10;;;5.78;;
68866;SDS011;56451;44.804;20.476;2022-09-09T13:00:58;9.50;;;5.73;;
68866;SDS011;56451;44.804;20.476;2022-09-09T13:03:25;10.55;;;6.15;;
68866;SDS011;56451;44.804;20.476;2022-09-09T13:05:52;12.30;;;6.25;;
68866;SDS011;56451;44.804;20.476;2022-09-09T13:08:19;9.57;;;6.57;;
68866;SDS011;56451;44.804;20.476;2022-09-09T13:13:20;10.70;;;7.20;;
68866;SDS011;56451;44.804;20.476;2022-09-09T13:15:49;10.98;;;6.85;;
68866;SDS011;56451;44.804;20.476;2022-09-09T13:18:18;10.35;;;7.00;;
68866;SDS011;56451;44.804;20.476;2022-09-09T13:20:48;10.70;;;7.10;;
68866;SDS011;56451;44.804;20.476;2022-09-09T13:23:15;12.43;;;7.25;;
68866;SDS011;56451;44.804;20.476;2022-09-09T13:25:51;11.70;;;6.57;;
68866;SDS011;56451;44.804;20.476;2022-09-09T13:28:22;10.27;;;7.45;;
68866;SDS011;56451;44.804;20.476;2022-09-09T13:30:57;10.30;;;7.60;;
68866;SDS011;56451;44.804;20.476;2022-09-09T13:33:28;10.15;;;7.43;;
68866;SDS011;56451;44.804;20.476;2022-09-09T13:36:12;15.63;;;7.45;;
68866;SDS011;56451;44.804;20.476;2022-09-09T13:41:24;12.60;;;7.65;;
68866;SDS011;56451;44.804;20.476;2022-09-09T13:43:58;10.38;;;7.00;;
68866;SDS011;56451;44.804;20.476;2022-09-09T13:51:37;11.87;;;7.40;;
68866;SDS011;56451;44.804;20.476;2022-09-09T13:54:04;14.98;;;7.57;;
68866;SDS011;56451;44.804;20.476;2022-09-09T13:56:34;12.30;;;7.20;;
68866;SDS011;56451;44.804;20.476;2022-09-09T13:59:01;11.85;;;7.30;;
68866;SDS011;56451;44.804;20.476;2022-09-09T14:01:28;11.02;;;7.63;;
68866;SDS011;56451;44.804;20.476;2022-09-09T14:03:55;11.97;;;7.30;;
68866;SDS011;56451;44.804;20.476;2022-09-09T14:06:21;10.55;;;7.03;;
68866;SDS011;56451;44.804;20.476;2022-09-09T14:08:47;10.55;;;7.45;;
68866;SDS011;56451;44.804;20.476;2022-09-09T14:11:15;11.50;;;7.40;;
68866;SDS011;56451;44.804;20.476;2022-09-09T14:13:42;13.52;;;6.97;;
68866;SDS011;56451;44.804;20.476;2022-09-09T14:16:08;14.00;;;7.40;;
68866;SDS011;56451;44.804;20.476;2022-09-09T14:18:35;11.30;;;6.53;;
68866;SDS011;56451;44.804;20.476;2022-09-09T14:21:03;13.07;;;7.30;;
68866;SDS011;56451;44.804;20.476;2022-09-09T14:23:29;11.00;;;6.47;;
68866;SDS011;56451;44.804;20.476;2022-09-09T14:25:55;10.77;;;6.78;;
68866;SDS011;56451;44.804;20.476;2022-09-09T14:28:21;9.70;;;6.88;;
68866;SDS011;56451;44.804;20.476;2022-09-09T14:30:47;9.65;;;6.35;;
68866;SDS011;56451;44.804;20.476;2022-09-09T14:33:14;7.80;;;6.70;;
68866;SDS011;56451;44.804;20.476;2022-09-09T14:35:41;13.77;;;7.47;;
68866;SDS011;56451;44.804;20.476;2022-09-09T14:38:08;12.27;;;7.55;;
68866;SDS011;56451;44.804;20.476;2022-09-09T14:40:34;9.30;;;7.00;;
68866;SDS011;56451;44.804;20.476;2022-09-09T14:43:01;10.25;;;7.00;;
68866;SDS011;56451;44.804;20.476;2022-09-09T14:45:28;10.57;;;6.93;;
68866;SDS011;56451;44.804;20.476;2022-09-09T14:47:53;10.30;;;7.03;;
68866;SDS011;56451;44.804;20.476;2022-09-09T14:50:20;10.30;;;6.90;;
68866;SDS011;56451;44.804;20.476;2022-09-09T14:52:47;10.85;;;7.05;;
68866;SDS011;56451;44.804;20.476;2022-09-09T14:55:13;10.50;;;7.00;;
68866;SDS011;56451;44.804;20.476;2022-09-09T14:57:39;14.50;;;7.00;;
68866;SDS011;56451;44.804;20.476;2022-09-09T15:00:06;11.43;;;6.63;;
68866;SDS011;56451;44.804;20.476;2022-09-09T15:02:33;8.88;;;5.85;;
68866;SDS011;56451;44.804;20.476;2022-09-09T15:04:59;10.40;;;6.55;;
68866;SDS011;56451;44.804;20.476;2022-09-09T15:07:25;10.70;;;6.23;;
68866;SDS011;56451;44.804;20.476;2022-09-09T15:09:52;8.57;;;6.05;;
68866;SDS011;56451;44.804;20.476;2022-09-09T15:12:18;11.93;;;6.35;;
68866;SDS011;56451;44.804;20.476;2022-09-09T15:14:44;9.45;;;6.55;;
68866;SDS011;56451;44.804;20.476;2022-09-09T15:17:10;9.65;;;6.57;;
68866;SDS011;56451;44.804;20.476;2022-09-09T15:19:37;7.93;;;6.53;;
68866;SDS011;56451;44.804;20.476;2022-09-09T15:22:03;11.75;;;6.63;;
68866;SDS011;56451;44.804;20.476;2022-09-09T15:24:31;10.95;;;6.57;;
68866;SDS011;56451;44.804;20.476;2022-09-09T15:26:57;10.95;;;6.50;;
68866;SDS011;56451;44.804;20.476;2022-09-09T15:29:23;8.47;;;5.97;;
68866;SDS011;56451;44.804;20.476;2022-09-09T15:31:50;8.67;;;5.80;;
68866;SDS011;56451;44.804;20.476;2022-09-09T15:34:15;10.52;;;6.25;;
68866;SDS011;56451;44.804;20.476;2022-09-09T15:36:44;8.80;;;6.57;;
68866;SDS011;56451;44.804;20.476;2022-09-09T15:39:15;9.02;;;5.82;;
68866;SDS011;56451;44.804;20.476;2022-09-09T15:41:42;9.95;;;6.03;;
68866;SDS011;56451;44.804;20.476;2022-09-09T15:44:09;10.90;;;6.00;;
68866;SDS011;56451;44.804;20.476;2022-09-09T15:46:38;10.15;;;6.80;;
68866;SDS011;56451;44.804;20.476;2022-09-09T15:49:09;10.47;;;6.53;;
68866;SDS011;56451;44.804;20.476;2022-09-09T15:51:36;10.45;;;6.35;;
68866;SDS011;56451;44.804;20.476;2022-09-09T15:54:04;11.02;;;6.05;;
68866;SDS011;56451;44.804;20.476;2022-09-09T15:56:30;10.98;;;6.85;;
68866;SDS011;56451;44.804;20.476;2022-09-09T15:58:56;10.90;;;6.55;;
68866;SDS011;56451;44.804;20.476;2022-09-09T16:01:23;9.80;;;6.67;;
68866;SDS011;56451;44.804;20.476;2022-09-09T16:03:49;11.15;;;5.82;;
68866;SDS011;56451;44.804;20.476;2022-09-09T16:06:19;10.07;;;6.43;;
68866;SDS011;56451;44.804;20.476;2022-09-09T16:08:47;9.32;;;6.30;;
68866;SDS011;56451;44.804;20.476;2022-09-09T16:11:25;12.77;;;6.85;;
68866;SDS011;56451;44.804;20.476;2022-09-09T16:13:53;10.70;;;6.30;;
68866;SDS011;56451;44.804;20.476;2022-09-09T16:16:20;14.63;;;8.00;;
68866;SDS011;56451;44.804;20.476;2022-09-09T16:18:49;14.48;;;8.88;;
68866;SDS011;56451;44.804;20.476;2022-09-09T16:21:27;15.25;;;9.50;;
68866;SDS011;56451;44.804;20.476;2022-09-09T16:24:01;15.75;;;8.68;;
68866;SDS011;56451;44.804;20.476;2022-09-09T16:26:29;14.00;;;7.33;;
68866;SDS011;56451;44.804;20.476;2022-09-09T16:28:57;14.35;;;8.32;;
68866;SDS011;56451;44.804;20.476;2022-09-09T16:31:26;14.68;;;8.20;;
68866;SDS011;56451;44.804;20.476;2022-09-09T16:33:53;11.45;;;7.18;;
68866;SDS011;56451;44.804;20.476;2022-09-09T16:36:21;12.13;;;7.50;;
68866;SDS011;56451;44.804;20.476;2022-09-09T16:38:47;9.90;;;6.88;;
68866;SDS011;56451;44.804;20.476;2022-09-09T16:41:14;11.73;;;6.10;;
68866;SDS011;56451;44.804;20.476;2022-09-09T16:43:40;13.20;;;6.82;;
68866;SDS011;56451;44.804;20.476;2022-09-09T16:46:12;9.77;;;6.83;;
68866;SDS011;56451;44.804;20.476;2022-09-09T16:48:41;15.20;;;6.30;;
68866;SDS011;56451;44.804;20.476;2022-09-09T16:51:09;9.20;;;6.68;;
68866;SDS011;56451;44.804;20.476;2022-09-09T16:53:42;15.55;;;6.70;;
68866;SDS011;56451;44.804;20.476;2022-09-09T16:56:09;13.57;;;7.18;;
68866;SDS011;56451;44.804;20.476;2022-09-09T16:58:36;12.50;;;7.10;;
68866;SDS011;56451;44.804;20.476;2022-09-09T17:01:02;11.45;;;6.93;;
68866;SDS011;56451;44.804;20.476;2022-09-09T17:03:29;12.27;;;7.18;;
68866;SDS011;56451;44.804;20.476;2022-09-09T17:05:57;9.00;;;6.27;;